createdAt,value
2023-05-23T00:00:20.531Z,63.73
2023-05-23T00:05:22.183Z,63.83
2023-05-23T00:10:23.728Z,63.94
2023-05-23T00:15:25.536Z,63.82
2023-05-23T00:20:27.617Z,64.00
2023-05-23T00:25:34.156Z,63.85
2023-05-23T00:30:35.983Z,63.62
2023-05-23T00:35:37.788Z,63.71
2023-05-23T00:40:39.448Z,64.25
2023-05-23T00:45:41.306Z,66.56
2023-05-23T00:50:43.163Z,64.80
2023-05-23T00:55:45.344Z,65.05
2023-05-23T01:00:50.449Z,64.96
2023-05-23T01:05:52.924Z,64.86
2023-05-23T01:10:56.997Z,66.24
2023-05-23T01:16:24.407Z,66.37
2023-05-23T01:21:27.180Z,65.58
2023-05-23T01:26:40.965Z,65.42
2023-05-23T01:31:48.802Z,65.69
2023-05-23T01:36:55.526Z,65.49
2023-05-23T01:41:57.305Z,66.27
2023-05-23T01:46:59.325Z,66.27
2023-05-23T01:52:01.868Z,66.92
2023-05-23T01:57:04.968Z,67.04
2023-05-23T02:02:06.604Z,66.95
2023-05-23T02:07:08.429Z,66.61
2023-05-23T02:12:10.199Z,67.89
2023-05-23T02:17:11.837Z,68.32
2023-05-23T02:22:13.944Z,68.31
2023-05-23T02:27:15.562Z,70.09
2023-05-23T02:32:17.259Z,69.51
2023-05-23T02:37:18.784Z,69.76
2023-05-23T02:42:20.319Z,69.88
2023-05-23T02:47:21.952Z,69.22
2023-05-23T02:52:25.293Z,69.08
2023-05-23T02:57:26.868Z,68.67
2023-05-23T03:02:28.578Z,68.55
2023-05-23T03:07:30.482Z,66.35
2023-05-23T03:12:32.013Z,63.16
2023-05-23T03:17:33.611Z,61.57
2023-05-23T03:22:36.579Z,58.72
2023-05-23T03:27:38.159Z,54.40
2023-05-23T03:32:39.878Z,52.18
2023-05-23T03:37:41.513Z,48.91
2023-05-23T03:42:43.024Z,50.79
2023-05-23T03:47:44.651Z,53.71
2023-05-23T03:52:46.291Z,55.80
2023-05-23T03:57:49.258Z,57.28
2023-05-23T04:02:52.152Z,58.62
2023-05-23T04:07:54.069Z,59.26
2023-05-23T04:12:56.881Z,60.43
2023-05-23T04:17:58.637Z,61.12
2023-05-23T04:23:00.216Z,61.43
2023-05-23T04:28:01.795Z,62.09
2023-05-23T04:33:03.941Z,62.09
2023-05-23T04:38:05.620Z,61.79
2023-05-23T04:43:09.405Z,61.15
2023-05-23T04:48:13.296Z,61.46
2023-05-23T04:53:14.943Z,61.93
2023-05-23T04:58:16.617Z,61.74
2023-05-23T05:03:18.770Z,60.35
2023-05-23T05:08:20.374Z,59.59
2023-05-23T05:13:22.074Z,59.81
2023-05-23T05:18:23.600Z,60.31
2023-05-23T05:23:28.917Z,60.49
2023-05-23T05:28:30.562Z,60.47
2023-05-23T05:33:36.363Z,59.55
2023-05-23T05:38:38.225Z,59.21
2023-05-23T05:43:39.821Z,59.08
2023-05-23T05:48:41.488Z,59.80
2023-05-23T05:53:43.122Z,59.53
2023-05-23T05:58:44.802Z,59.12
2023-05-23T06:03:46.543Z,58.76
2023-05-23T06:08:48.340Z,58.50
2023-05-23T06:13:49.940Z,58.73
2023-05-23T06:18:53.235Z,58.50
2023-05-23T06:23:54.991Z,58.36
2023-05-23T06:28:56.748Z,58.03
2023-05-23T06:33:58.401Z,57.75
2023-05-23T06:38:59.928Z,57.38
2023-05-23T06:44:01.646Z,57.05
2023-05-23T06:49:14.218Z,57.07
2023-05-23T06:54:16.625Z,56.85
2023-05-23T06:59:19.366Z,56.43
2023-05-23T07:04:20.914Z,56.60
2023-05-23T07:09:22.684Z,56.30
2023-05-23T07:14:24.305Z,56.31
2023-05-23T07:19:25.925Z,55.40
2023-05-23T07:24:27.530Z,54.77
2023-05-23T07:29:29.222Z,54.10
2023-05-23T07:34:31.329Z,52.79
2023-05-23T07:39:32.894Z,51.99
2023-05-23T07:44:34.419Z,51.79
2023-05-23T07:49:36.031Z,50.28
2023-05-23T07:54:40.801Z,50.52
2023-05-23T07:59:42.505Z,49.70
2023-05-23T08:04:45.416Z,47.52
2023-05-23T08:09:47.234Z,47.71
2023-05-23T08:14:51.826Z,47.11
2023-05-23T08:19:54.176Z,46.18
2023-05-23T08:24:56.181Z,46.08
2023-05-23T08:29:58.247Z,44.65
2023-05-23T08:34:59.775Z,43.53
2023-05-23T08:40:01.933Z,42.06
2023-05-23T08:45:03.792Z,42.59
2023-05-23T08:50:08.219Z,42.68
2023-05-23T08:55:11.534Z,42.64
2023-05-23T09:00:15.093Z,41.99
2023-05-23T09:05:17.097Z,41.27
2023-05-23T09:10:22.078Z,40.46
2023-05-23T09:15:24.135Z,41.48
2023-05-23T09:20:25.664Z,40.23
2023-05-23T09:25:27.270Z,39.38
2023-05-23T09:30:37.661Z,39.87
2023-05-23T09:35:44.504Z,39.42
2023-05-23T09:40:46.113Z,39.08
2023-05-23T09:45:47.633Z,38.38
2023-05-23T09:50:51.499Z,38.83
2023-05-23T09:55:54.956Z,38.39
2023-05-23T10:00:58.192Z,38.39
2023-05-23T10:06:16.715Z,38.00
2023-05-23T10:12:16.095Z,38.56
2023-05-23T10:17:22.300Z,37.24
2023-05-23T10:22:25.531Z,37.02
2023-05-23T10:27:27.863Z,36.41
2023-05-23T10:32:31.240Z,35.78
2023-05-23T10:37:46.963Z,35.73
2023-05-23T10:42:59.421Z,35.01
2023-05-23T10:48:01.042Z,35.67
2023-05-23T10:53:07.049Z,35.17
2023-05-23T10:58:30.201Z,35.29
2023-05-23T11:03:35.401Z,34.57
2023-05-23T11:08:47.839Z,34.74
2023-05-23T11:13:53.063Z,35.28
2023-05-23T11:19:19.571Z,35.67
2023-05-23T11:24:22.809Z,35.06
2023-05-23T11:29:26.602Z,34.89
2023-05-23T11:34:28.372Z,34.73
2023-05-23T11:39:29.919Z,34.25
2023-05-23T11:44:31.524Z,34.69
2023-05-23T11:49:38.109Z,34.74
2023-05-23T11:54:46.495Z,33.86
2023-05-23T11:59:48.181Z,32.85
2023-05-23T12:04:49.709Z,32.51
2023-05-23T12:09:55.817Z,32.89
2023-05-23T12:14:58.105Z,34.24
2023-05-23T12:20:00.576Z,32.88
2023-05-23T12:25:02.813Z,32.72
2023-05-23T12:30:06.572Z,33.25
2023-05-23T12:35:16.629Z,32.10
2023-05-23T12:40:19.466Z,31.91
2023-05-23T12:45:36.722Z,32.77
2023-05-23T12:50:39.310Z,32.92
2023-05-23T12:55:41.134Z,33.29
2023-05-23T13:00:42.818Z,33.05
2023-05-23T13:05:44.563Z,32.88
2023-05-23T13:10:46.278Z,31.33
2023-05-23T13:15:50.630Z,31.84
2023-05-23T13:20:52.984Z,31.68
2023-05-23T13:25:54.564Z,31.09
2023-05-23T13:30:56.368Z,31.31
2023-05-23T13:35:58.662Z,31.50
2023-05-23T13:41:00.290Z,30.79
2023-05-23T13:46:03.134Z,30.91
2023-05-23T13:51:05.285Z,29.86
2023-05-23T13:56:07.528Z,30.80
2023-05-23T14:01:09.516Z,30.58
2023-05-23T14:06:10.958Z,30.36
2023-05-23T14:11:12.637Z,29.87
2023-05-23T14:16:21.031Z,29.13
2023-05-23T14:21:23.945Z,28.97
2023-05-23T14:26:26.543Z,29.84
2023-05-23T14:31:28.166Z,29.36
2023-05-23T14:36:29.800Z,29.39
2023-05-23T14:41:31.926Z,29.59
2023-05-23T14:46:33.529Z,28.92
2023-05-23T14:51:47.436Z,28.70
2023-05-23T14:56:53.416Z,28.88
2023-05-23T15:01:55.300Z,29.81
2023-05-23T15:06:57.252Z,30.73
2023-05-23T15:11:59.583Z,29.73
2023-05-23T15:17:07.868Z,29.84
2023-05-23T15:22:13.188Z,29.95
2023-05-23T15:27:22.314Z,29.44
2023-05-23T15:32:24.106Z,30.32
2023-05-23T15:37:25.748Z,30.21
2023-05-23T15:42:27.560Z,30.29
2023-05-23T15:47:29.406Z,31.53
2023-05-23T15:52:30.912Z,31.88
2023-05-23T15:57:33.650Z,32.18
2023-05-23T16:02:35.195Z,32.66
2023-05-23T16:07:36.961Z,32.02
2023-05-23T16:12:38.514Z,30.92
2023-05-23T16:17:40.039Z,31.42
2023-05-23T16:22:41.862Z,32.05
2023-05-23T16:27:43.292Z,32.56
2023-05-23T16:32:44.879Z,33.05
2023-05-23T16:37:46.513Z,33.73
2023-05-23T16:42:48.109Z,34.18
2023-05-23T16:47:49.993Z,34.31
2023-05-23T16:52:51.643Z,35.07
2023-05-23T16:57:56.107Z,35.39
2023-05-23T17:02:57.790Z,36.40
2023-05-23T17:07:59.626Z,36.97
2023-05-23T17:13:01.169Z,37.17
2023-05-23T17:18:02.866Z,37.48
2023-05-23T17:23:05.510Z,38.15
2023-05-23T17:28:07.218Z,38.41
2023-05-23T17:33:10.836Z,38.44
2023-05-23T17:38:12.487Z,39.36
2023-05-23T17:43:14.046Z,38.97
2023-05-23T17:48:15.866Z,39.89
2023-05-23T17:53:18.069Z,40.54
2023-05-23T17:58:21.597Z,40.62
2023-05-23T18:03:24.383Z,41.05
2023-05-23T18:08:25.944Z,41.70
2023-05-23T18:13:27.511Z,42.16
2023-05-23T18:18:29.178Z,41.55
2023-05-23T18:23:30.797Z,42.53
2023-05-23T18:28:32.544Z,42.57
2023-05-23T18:33:34.102Z,42.49
2023-05-23T18:38:36.333Z,42.94
2023-05-23T18:43:37.985Z,43.03
2023-05-23T18:48:40.748Z,42.80
2023-05-23T18:53:43.262Z,43.29
2023-05-23T18:58:46.749Z,43.81
2023-05-23T19:03:49.050Z,43.78
2023-05-23T19:08:50.872Z,43.98
2023-05-23T19:13:52.453Z,44.77
2023-05-23T19:18:54.019Z,45.19
2023-05-23T19:23:56.550Z,46.13
2023-05-23T19:28:57.988Z,46.11
2023-05-23T19:33:59.538Z,46.41
2023-05-23T19:39:01.763Z,46.39
2023-05-23T19:44:03.442Z,46.80
2023-05-23T19:49:08.126Z,47.37
2023-05-23T19:54:09.725Z,48.00
2023-05-23T19:59:11.537Z,48.12
2023-05-23T20:04:13.247Z,48.44
2023-05-23T20:09:14.968Z,49.14
2023-05-23T20:14:16.632Z,48.92
2023-05-23T20:19:18.250Z,48.74
2023-05-23T20:24:19.839Z,49.54
2023-05-23T20:29:21.651Z,49.22
2023-05-23T20:34:23.169Z,49.32
2023-05-23T20:39:24.754Z,49.73
2023-05-23T20:44:26.952Z,49.86
2023-05-23T20:49:28.503Z,49.81
2023-05-23T20:54:30.020Z,50.62
2023-05-23T20:59:31.555Z,50.80
2023-05-23T21:04:33.107Z,50.93
2023-05-23T21:09:34.642Z,51.23
2023-05-23T21:14:36.284Z,51.72
2023-05-23T21:19:37.840Z,52.37
2023-05-23T21:24:39.569Z,52.54
2023-05-23T21:29:41.180Z,53.14
2023-05-23T21:34:42.787Z,52.92
2023-05-23T21:39:51.137Z,53.35
2023-05-23T21:44:53.760Z,53.49
2023-05-23T21:49:55.307Z,53.69
2023-05-23T21:54:56.835Z,53.25
2023-05-23T21:59:58.733Z,53.97
2023-05-23T22:05:00.648Z,54.03
2023-05-23T22:10:02.196Z,53.75
2023-05-23T22:15:03.959Z,53.58
2023-05-23T22:20:06.456Z,53.63
2023-05-23T22:25:08.664Z,54.52
2023-05-23T22:30:10.579Z,54.53
2023-05-23T22:35:12.105Z,54.14
2023-05-23T22:40:13.624Z,54.39
2023-05-23T22:45:15.399Z,54.92
2023-05-23T22:50:17.799Z,55.12
2023-05-23T22:55:19.397Z,55.86
2023-05-23T23:00:21.554Z,56.18
2023-05-23T23:05:23.118Z,55.71
2023-05-23T23:10:25.005Z,55.52
2023-05-23T23:15:26.670Z,55.42
2023-05-23T23:20:28.587Z,55.94
2023-05-23T23:25:30.509Z,56.00
2023-05-23T23:30:32.162Z,56.81
2023-05-23T23:35:33.684Z,56.87
2023-05-23T23:40:35.249Z,56.90
2023-05-23T23:45:36.779Z,56.48
2023-05-23T23:50:38.306Z,56.08
2023-05-23T23:55:39.889Z,56.75
